Terminal Aerodrome Forecast
Issued by NWS

Home | Current Version | Previous Version | Text Only | Print | Product List | Glossary On
Versions: 1 2 3 4 5 6 7 8 9 10 11 12 13 14
000
FTUS44 KLIX 212300
TAFGPT
TAF
KGPT 212325Z 2200/2224 13004KT P6SM FEW250
     FM220900 00000KT 5SM BR SCT250
     FM221400 24003KT P6SM SCT050=

USA.gov is the U.S. government's official web portal to all federal, state and local government web resources and services.